Time;durP1;ratioP1;P1;durP2;ratioP2;P2;SDS_P1;SDS_P2;PMS_P1;PMS_P2;Temp;Humidity;BMP_temperature;BMP_pressure;BME280_temperature;BME280_humidity;BME280_pressure;Samples;Min_cycle;Max_cycle;Signal;HPM_P1;HPM_P2
2022/10/29 00:00:54;;;;;;;14.30;4.63;;;12.80;99.90;;;;;;5092575;28;20093;-34
2022/10/29 00:03:20;;;;;;;;;;;12.70;99.90;;;;;;5084703;28;20033;-34
2022/10/29 00:06:06;;;;;;;9.27;4.43;;;12.80;99.90;;;;;;5078530;28;19962;-33
2022/10/29 00:08:35;;;;;;;12.48;4.72;;;12.80;99.90;;;;;;5088877;28;20044;-33
2022/10/29 00:11:11;;;;;;;18.58;5.40;;;12.80;99.90;;;;;;5088289;28;20085;-33
2022/10/29 00:13:37;;;;;;;13.77;5.20;;;12.80;99.90;;;;;;5092361;28;20538;-32
2022/10/29 00:16:05;;;;;;;16.85;5.60;;;12.80;99.90;;;;;;5092691;28;20032;-31
2022/10/29 00:18:31;;;;;;;11.55;3.97;;;12.80;99.90;;;;;;5092909;28;20473;-32
2022/10/29 00:21:05;;;;;;;10.80;4.40;;;12.70;99.90;;;;;;5092838;28;20043;-33
2022/10/29 00:23:31;;;;;;;14.95;5.10;;;12.70;99.90;;;;;;5088552;28;20047;-35
2022/10/29 00:25:58;;;;;;;14.02;4.85;;;12.70;99.90;;;;;;5082102;28;20052;-34
2022/10/29 00:28:25;;;;;;;18.15;6.03;;;12.70;99.90;;;;;;5092856;28;20051;-32
2022/10/29 00:30:51;;;;;;;14.35;6.13;;;12.70;99.90;;;;;;5092763;28;20032;-33
2022/10/29 00:33:20;;;;;;;10.48;5.80;;;12.70;99.90;;;;;;5092275;28;20544;-32
2022/10/29 00:36:04;;;;;;;15.95;5.70;;;12.70;99.90;;;;;;5093036;28;20428;-31
2022/10/29 00:38:31;;;;;;;15.98;5.70;;;12.70;99.90;;;;;;5074690;28;20090;-33
2022/10/29 00:40:57;;;;;;;11.23;4.90;;;12.60;99.90;;;;;;5093048;28;20044;-34
2022/10/29 00:43:25;;;;;;;12.98;5.47;;;12.60;99.90;;;;;;5091988;28;20089;-35
2022/10/29 00:45:57;;;;;;;8.95;4.75;;;12.50;99.90;;;;;;5092801;28;20485;-33
2022/10/29 00:48:26;;;;;;;11.47;5.77;;;12.50;99.90;;;;;;5073408;28;20044;-31
2022/10/29 00:50:53;;;;;;;14.90;5.95;;;12.50;99.90;;;;;;5092447;28;20476;-32
2022/10/29 00:53:22;;;;;;;12.38;5.82;;;12.50;99.90;;;;;;5078611;28;20055;-32
2022/10/29 00:55:48;;;;;;;7.15;5.00;;;12.40;99.90;;;;;;5096241;28;20368;-33
2022/10/29 00:58:14;;;;;;;9.85;5.55;;;12.30;99.90;;;;;;5095888;28;20047;-33
2022/10/29 01:00:41;;;;;;;11.02;6.20;;;12.30;99.90;;;;;;5092226;28;20032;-31
2022/10/29 01:03:07;;;;;;;11.35;5.13;;;12.20;99.90;;;;;;5106908;28;20178;-34
2022/10/29 01:05:34;;;;;;;15.68;6.65;;;12.10;99.90;;;;;;5103437;28;20067;-31
2022/10/29 01:08:03;;;;;;;17.13;6.75;;;12.10;99.90;;;;;;5095620;28;20032;-31
2022/10/29 01:10:57;;;;;;;15.55;6.55;;;12.10;99.90;;;;;;5095883;28;20123;-34
2022/10/29 01:13:29;;;;;;;11.40;5.50;;;12.00;99.90;;;;;;5095006;28;20044;-31
2022/10/29 01:15:54;;;;;;;11.43;5.88;;;11.90;99.90;;;;;;5095718;28;20051;-30
2022/10/29 01:18:29;;;;;;;14.93;6.03;;;11.90;99.90;;;;;;5095519;28;20405;-33
2022/10/29 01:21:19;;;;;;;12.65;6.53;;;11.80;99.90;;;;;;5103744;28;20068;-33
2022/10/29 01:24:11;;;;;;;12.95;6.03;;;11.80;99.90;;;;;;5095912;28;20072;-33
2022/10/29 01:27:33;;;;;;;12.15;6.22;;;11.80;99.90;;;;;;5084601;28;20127;-35
2022/10/29 01:29:58;;;;;;;11.50;6.32;;;11.70;99.90;;;;;;5029399;28;20076;-31
2022/10/29 01:32:29;;;;;;;19.98;6.78;;;11.70;99.90;;;;;;5078415;28;20048;-35
2022/10/29 01:35:47;;;;;;;11.82;6.72;;;11.70;99.90;;;;;;5095434;28;20488;-34
2022/10/29 01:38:39;;;;;;;12.23;7.75;;;11.70;99.90;;;;;;5052407;28;20059;-33
2022/10/29 01:41:29;;;;;;;10.30;7.20;;;11.60;99.90;;;;;;5089467;28;20040;-35
2022/10/29 01:44:02;;;;;;;10.48;7.38;;;11.60;99.90;;;;;;5093150;28;20059;-34
2022/10/29 01:46:51;;;;;;;13.67;8.77;;;11.60;99.90;;;;;;5077627;28;20048;-34
2022/10/29 01:49:23;;;;;;;15.70;8.90;;;11.60;99.90;;;;;;5084959;28;20040;-34
2022/10/29 01:51:51;;;;;;;11.40;8.20;;;11.50;99.90;;;;;;5094921;28;20476;-32
2022/10/29 01:54:17;;;;;;;13.77;8.82;;;11.50;99.90;;;;;;5094970;28;20048;-32
2022/10/29 01:56:42;;;;;;;15.40;8.43;;;11.40;99.90;;;;;;5094631;28;20397;-32
2022/10/29 01:59:11;;;;;;;14.68;8.02;;;11.40;99.90;;;;;;5095204;28;20040;-33
2022/10/29 02:01:56;;;;;;;14.15;7.95;;;11.40;99.90;;;;;;5095573;28;20035;-35
2022/10/29 02:04:37;;;;;;;12.15;7.22;;;11.30;99.90;;;;;;5091858;28;20048;-33
2022/10/29 02:07:31;;;;;;;9.88;7.30;;;11.20;99.90;;;;;;5094624;28;20061;-34
2022/10/29 02:10:07;;;;;;;14.57;9.27;;;11.20;99.90;;;;;;5077532;28;20131;-34
2022/10/29 02:12:43;;;;;;;11.38;8.20;;;11.20;99.90;;;;;;5109833;28;20028;-33
2022/10/29 02:15:28;;;;;;;16.50;9.00;;;11.20;99.90;;;;;;5111457;28;20515;-34
2022/10/29 02:18:02;;;;;;;11.88;7.38;;;11.20;99.90;;;;;;5089721;28;20028;-31
2022/10/29 02:20:29;;;;;;;12.40;8.35;;;11.10;99.90;;;;;;5094369;28;20119;-32
2022/10/29 02:22:55;;;;;;;13.88;7.88;;;11.10;99.90;;;;;;5077803;28;20031;-33
2022/10/29 02:25:21;;;;;;;9.73;7.82;;;11.10;99.90;;;;;;5095728;28;20039;-33
2022/10/29 02:27:47;;;;;;;11.55;8.60;;;11.00;99.90;;;;;;5094091;28;20028;-34
2022/10/29 02:30:14;;;;;;;14.05;7.72;;;11.00;99.90;;;;;;5077137;28;20043;-34
2022/10/29 02:32:39;;;;;;;9.32;6.78;;;11.00;99.90;;;;;;5094409;28;20036;-33
2022/10/29 02:35:06;;;;;;;10.82;7.22;;;11.00;99.90;;;;;;5094132;28;20042;-33
2022/10/29 02:37:32;;;;;;;14.13;7.45;;;10.90;99.90;;;;;;5093386;28;20343;-32
2022/10/29 02:39:58;;;;;;;12.45;7.93;;;10.90;99.90;;;;;;5093881;28;20396;-31
2022/10/29 02:42:24;;;;;;;9.63;7.35;;;10.90;99.90;;;;;;5094348;28;20068;-33
2022/10/29 02:44:50;;;;;;;12.45;7.38;;;10.90;99.90;;;;;;5090427;28;20449;-34
2022/10/29 02:47:16;;;;;;;9.40;7.35;;;10.90;99.90;;;;;;5082720;28;20068;-33
2022/10/29 02:49:42;;;;;;;10.95;7.78;;;10.80;99.90;;;;;;5079496;28;20154;-35
2022/10/29 02:52:07;;;;;;;13.38;7.03;;;10.80;99.90;;;;;;5086756;28;20054;-31
2022/10/29 02:54:33;;;;;;;9.90;6.72;;;10.80;99.90;;;;;;5092889;28;20068;-33
2022/10/29 02:56:59;;;;;;;12.45;7.20;;;10.80;99.90;;;;;;5094977;28;20032;-34
2022/10/29 02:59:25;;;;;;;11.63;7.38;;;10.70;99.90;;;;;;5093703;28;20039;-32
2022/10/29 03:01:51;;;;;;;8.55;5.78;;;10.70;99.90;;;;;;5088397;28;20071;-33
2022/10/29 03:04:16;;;;;;;12.35;7.47;;;10.70;99.90;;;;;;5080927;28;20040;-34
2022/10/29 03:06:42;;;;;;;11.77;6.90;;;10.70;99.90;;;;;;5087914;28;20036;-33
2022/10/29 03:09:09;;;;;;;12.35;6.63;;;10.70;99.90;;;;;;5081477;28;20112;-33
2022/10/29 03:11:35;;;;;;;37.97;8.48;;;10.70;99.90;;;;;;5093374;28;20040;-30
2022/10/29 03:14:00;;;;;;;29.00;8.35;;;10.70;99.90;;;;;;5078527;28;20115;-28
2022/10/29 03:16:26;;;;;;;21.50;8.95;;;10.70;99.90;;;;;;5076352;28;20123;-29
2022/10/29 03:18:52;;;;;;;26.13;9.05;;;10.70;99.90;;;;;;5088756;28;20493;-30
2022/10/29 03:21:18;;;;;;;25.75;9.52;;;10.70;99.90;;;;;;5077796;28;20044;-29
2022/10/29 03:23:43;;;;;;;32.83;11.13;;;10.80;99.90;;;;;;5094261;28;20063;-29
2022/10/29 03:26:09;;;;;;;27.48;10.82;;;10.70;99.90;;;;;;5094150;28;20396;-28
2022/10/29 03:28:35;;;;;;;13.68;8.60;;;10.70;99.90;;;;;;5084406;28;20039;-30
2022/10/29 03:31:02;;;;;;;19.85;9.32;;;10.70;99.90;;;;;;5092465;28;20035;-29
2022/10/29 03:33:28;;;;;;;14.63;9.00;;;10.70;99.90;;;;;;5081851;28;20123;-30
2022/10/29 03:35:58;;;;;;;20.48;9.73;;;10.70;99.90;;;;;;5086359;28;20568;-30
2022/10/29 03:38:24;;;;;;;20.85;8.82;;;10.70;99.90;;;;;;5092279;28;20035;-29
2022/10/29 03:40:50;;;;;;;20.83;11.38;;;10.70;99.90;;;;;;5087546;28;20036;-28
2022/10/29 03:43:17;;;;;;;16.23;9.40;;;10.70;99.90;;;;;;5075490;28;20054;-29
2022/10/29 03:45:43;;;;;;;13.40;9.70;;;10.80;99.90;;;;;;5091781;28;20063;-30
2022/10/29 03:48:09;;;;;;;15.48;9.48;;;10.80;99.90;;;;;;5085347;28;20051;-31
2022/10/29 03:50:34;;;;;;;14.98;8.95;;;10.90;99.90;;;;;;5076962;28;20044;-32
2022/10/29 03:53:00;;;;;;;13.70;8.98;;;10.90;99.90;;;;;;5101899;28;20036;-30
2022/10/29 03:55:28;;;;;;;15.98;11.13;;;11.00;99.90;;;;;;5092206;28;20044;-30
2022/10/29 03:57:54;;;;;;;13.30;9.80;;;11.10;99.90;;;;;;5092879;28;20083;-31
2022/10/29 04:00:20;;;;;;;19.95;12.32;;;11.10;99.90;;;;;;5092276;28;20070;-31
2022/10/29 04:02:46;;;;;;;23.10;12.30;;;11.20;99.90;;;;;;5091968;28;20497;-30
2022/10/29 04:05:12;;;;;;;20.50;13.95;;;11.20;99.90;;;;;;5092628;28;20036;-30
2022/10/29 04:07:38;;;;;;;15.90;11.20;;;11.30;99.90;;;;;;5092374;28;20500;-30
2022/10/29 04:10:04;;;;;;;17.52;9.75;;;11.30;99.90;;;;;;5088353;28;20081;-31
2022/10/29 04:12:30;;;;;;;13.93;9.50;;;11.40;99.90;;;;;;5092220;28;20482;-38
2022/10/29 04:14:56;;;;;;;14.95;10.00;;;11.40;99.90;;;;;;5092370;28;20185;-30
2022/10/29 04:17:21;;;;;;;19.77;12.07;;;11.40;99.90;;;;;;5091817;28;20040;-30
2022/10/29 04:19:47;;;;;;;15.55;10.18;;;11.40;99.90;;;;;;5081160;28;20472;-30
2022/10/29 04:22:13;;;;;;;13.00;8.95;;;11.40;99.90;;;;;;5080780;28;20043;-32
2022/10/29 04:24:39;;;;;;;13.95;9.77;;;11.40;99.90;;;;;;5092114;28;20042;-38
2022/10/29 04:27:04;;;;;;;14.00;9.23;;;11.40;99.90;;;;;;5093982;28;20427;-31
2022/10/29 04:29:30;;;;;;;15.68;8.40;;;11.40;99.90;;;;;;5078760;28;20071;-30
2022/10/29 04:31:56;;;;;;;16.58;9.15;;;11.30;99.90;;;;;;5095956;28;20105;-29
2022/10/29 04:34:22;;;;;;;8.45;5.40;;;11.30;99.90;;;;;;5095195;28;20346;-29
2022/10/29 04:36:47;;;;;;;10.65;6.38;;;11.30;99.90;;;;;;5095791;28;20137;-30
2022/10/29 04:39:13;;;;;;;9.48;5.97;;;11.30;99.90;;;;;;5094970;28;20097;-30
2022/10/29 04:41:39;;;;;;;9.60;6.03;;;11.30;99.90;;;;;;5094908;28;20039;-30
2022/10/29 04:44:05;;;;;;;12.27;6.55;;;11.30;99.90;;;;;;5094468;28;20071;-30
2022/10/29 04:46:30;;;;;;;10.10;6.70;;;11.30;99.90;;;;;;5094924;28;20032;-30
2022/10/29 04:48:56;;;;;;;9.93;6.65;;;11.30;99.90;;;;;;5094794;28;20097;-30
2022/10/29 04:51:24;;;;;;;9.57;6.53;;;11.30;99.90;;;;;;5095058;28;20130;-30
2022/10/29 04:53:50;;;;;;;11.70;6.45;;;11.30;99.90;;;;;;5094830;28;20040;-30
2022/10/29 04:56:16;;;;;;;14.68;7.72;;;11.30;99.90;;;;;;5094778;28;20044;-29
2022/10/29 04:58:42;;;;;;;10.75;7.32;;;11.30;99.90;;;;;;5095037;28;20040;-29
2022/10/29 05:01:08;;;;;;;9.77;6.72;;;11.30;99.90;;;;;;5093803;28;20050;-30
2022/10/29 05:03:34;;;;;;;11.93;7.07;;;11.30;99.90;;;;;;5111262;22;20126;-24
2022/10/29 05:06:04;;;;;;;13.45;7.30;;;11.30;99.90;;;;;;5079482;28;20434;-24
2022/10/29 05:08:38;;;;;;;19.08;8.35;;;11.30;99.90;;;;;;5101252;28;20100;-25
2022/10/29 05:11:05;;;;;;;16.77;7.43;;;11.30;99.90;;;;;;5102389;28;20039;-24
2022/10/29 05:13:32;;;;;;;16.67;7.82;;;11.30;99.90;;;;;;5102104;28;20039;-24
2022/10/29 05:15:58;;;;;;;21.98;9.15;;;11.40;99.90;;;;;;5090891;28;20460;-24
2022/10/29 05:18:24;;;;;;;33.92;13.05;;;11.40;99.90;;;;;;5115764;28;20047;-24
2022/10/29 05:20:53;;;;;;;61.53;14.77;;;11.40;99.90;;;;;;5101191;28;20032;-24
2022/10/29 05:23:19;;;;;;;38.78;13.63;;;11.50;99.90;;;;;;5101175;28;20069;-24
2022/10/29 05:25:50;;;;;;;205.48;29.00;;;11.50;99.90;;;;;;5094466;28;20040;-24
2022/10/29 05:28:18;;;;;;;61.63;15.43;;;11.60;99.90;;;;;;5095079;28;20067;-24
2022/10/29 05:30:44;;;;;;;34.13;12.95;;;11.60;99.90;;;;;;5084193;28;20063;-24
2022/10/29 05:33:13;;;;;;;32.53;12.20;;;11.60;99.90;;;;;;5101266;28;20119;-25
2022/10/29 05:35:39;;;;;;;169.27;23.65;;;11.70;99.90;;;;;;5101695;28;20046;-24
2022/10/29 05:38:05;;;;;;;20.42;14.00;;;11.60;99.90;;;;;;5100889;28;20441;-24
2022/10/29 05:40:32;;;;;;;23.42;13.05;;;11.70;99.90;;;;;;5098407;28;20073;-26
2022/10/29 05:42:58;;;;;;;35.15;15.45;;;11.70;99.90;;;;;;5083471;28;20035;-24
2022/10/29 05:45:24;;;;;;;22.85;13.25;;;11.70;99.90;;;;;;5093048;28;20042;-24
2022/10/29 05:47:57;;;;;;;22.83;13.60;;;11.80;99.90;;;;;;5101200;28;20039;-34
2022/10/29 05:50:23;;;;;;;23.60;14.23;;;11.80;99.90;;;;;;5092423;28;20040;-24
2022/10/29 05:53:01;;;;;;;21.65;12.07;;;11.80;99.90;;;;;;5089237;28;20165;-24
2022/10/29 05:55:28;;;;;;;26.48;10.65;;;11.80;99.90;;;;;;5089147;28;20424;-24
2022/10/29 05:57:58;;;;;;;20.20;11.10;;;11.70;99.90;;;;;;5092136;28;20140;-24
2022/10/29 06:00:25;;;;;;;16.17;10.00;;;11.80;99.90;;;;;;5091030;28;20031;-24
2022/10/29 06:02:51;;;;;;;17.60;11.05;;;11.70;99.90;;;;;;5091323;28;20032;-24
2022/10/29 06:05:16;;;;;;;16.27;12.00;;;11.70;99.90;;;;;;5093865;28;20051;-24
2022/10/29 06:07:42;;;;;;;16.45;11.30;;;11.70;99.90;;;;;;5090506;28;20032;-24
2022/10/29 06:10:08;;;;;;;14.32;10.95;;;11.70;99.90;;;;;;5099237;28;20119;-24
2022/10/29 06:12:34;;;;;;;16.15;11.18;;;11.70;99.90;;;;;;5095577;28;20551;-24
2022/10/29 06:14:59;;;;;;;16.13;11.60;;;11.70;99.90;;;;;;5087047;28;20508;-24
2022/10/29 06:17:27;;;;;;;17.25;12.00;;;11.70;99.90;;;;;;5085526;28;20280;-24
2022/10/29 06:19:53;;;;;;;17.73;12.45;;;11.70;99.90;;;;;;5108354;28;20040;-24
2022/10/29 06:22:19;;;;;;;23.60;15.15;;;11.70;99.90;;;;;;5107543;28;20036;-24
2022/10/29 06:24:45;;;;;;;15.95;11.23;;;11.70;99.90;;;;;;5107297;28;20044;-24
2022/10/29 06:27:11;;;;;;;16.08;11.55;;;11.70;99.90;;;;;;5107205;28;20036;-24
2022/10/29 06:29:36;;;;;;;24.45;13.10;;;11.70;99.90;;;;;;5107008;28;20039;-24
2022/10/29 06:32:03;;;;;;;13.38;11.35;;;11.70;99.90;;;;;;5106168;28;20044;-24
2022/10/29 06:34:29;;;;;;;20.25;13.43;;;11.70;99.90;;;;;;5107568;28;20055;-24
2022/10/29 06:36:54;;;;;;;20.33;12.68;;;11.70;99.90;;;;;;5107260;28;20559;-24
2022/10/29 06:39:20;;;;;;;18.70;12.38;;;11.70;99.90;;;;;;5107746;28;20043;-24
2022/10/29 06:41:46;;;;;;;17.55;13.05;;;11.70;99.90;;;;;;5107878;28;20078;-24
2022/10/29 06:44:12;;;;;;;22.15;13.20;;;11.70;99.90;;;;;;5107747;28;20047;-24
2022/10/29 06:46:38;;;;;;;18.40;11.43;;;11.70;99.90;;;;;;5107701;28;20050;-24
2022/10/29 06:49:05;;;;;;;17.65;11.65;;;11.70;99.90;;;;;;5105963;28;20101;-24
2022/10/29 06:51:31;;;;;;;17.30;10.95;;;11.80;99.90;;;;;;5106878;28;20109;-23
2022/10/29 06:53:57;;;;;;;18.35;12.93;;;11.80;99.90;;;;;;5106336;28;20043;-24
2022/10/29 06:56:23;;;;;;;20.35;15.20;;;11.80;99.90;;;;;;5107028;28;20058;-24
2022/10/29 06:58:48;;;;;;;19.20;13.02;;;11.80;99.90;;;;;;5106058;28;20040;-25
2022/10/29 07:01:14;;;;;;;17.52;12.23;;;11.80;99.90;;;;;;5106998;28;20071;-24
2022/10/29 07:03:40;;;;;;;20.98;12.30;;;11.90;99.90;;;;;;5105560;28;20035;-24
2022/10/29 07:06:06;;;;;;;16.73;12.35;;;11.90;99.90;;;;;;5105907;28;20126;-24
2022/10/29 07:08:32;;;;;;;17.15;11.98;;;11.90;99.90;;;;;;5106084;28;20031;-24
2022/10/29 07:10:58;;;;;;;17.65;12.88;;;11.90;99.90;;;;;;5105164;28;20115;-24
2022/10/29 07:13:23;;;;;;;17.80;12.68;;;11.90;99.90;;;;;;5104221;28;20068;-24
2022/10/29 07:15:49;;;;;;;19.30;15.20;;;12.00;99.90;;;;;;5104870;28;20395;-24
2022/10/29 07:18:15;;;;;;;20.85;16.85;;;12.10;99.90;;;;;;5105829;28;20131;-24
2022/10/29 07:20:43;;;;;;;22.67;17.83;;;12.10;99.90;;;;;;5105879;28;20073;-24
2022/10/29 07:23:10;;;;;;;25.10;19.08;;;12.10;99.90;;;;;;5124080;28;20036;-24
2022/10/29 07:25:37;;;;;;;25.20;17.17;;;12.20;99.90;;;;;;5104247;28;20035;-24
2022/10/29 07:28:22;;;;;;;29.38;20.27;;;12.20;99.90;;;;;;5088115;28;20039;-27
2022/10/29 07:30:49;;;;;;;19.90;16.35;;;12.30;99.90;;;;;;5086388;28;20028;-24
2022/10/29 07:33:16;;;;;;;27.50;19.33;;;12.30;99.90;;;;;;5101434;28;20039;-24
2022/10/29 07:35:43;;;;;;;25.75;18.15;;;12.40;99.90;;;;;;5104376;28;20039;-25
2022/10/29 07:38:10;;;;;;;19.13;15.93;;;12.40;99.90;;;;;;5104686;28;20063;-24
2022/10/29 07:40:44;;;;;;;22.20;16.90;;;12.40;99.90;;;;;;5105788;28;20042;-24
2022/10/29 07:43:10;;;;;;;24.83;18.23;;;12.40;99.90;;;;;;5106068;28;20067;-24
2022/10/29 07:45:36;;;;;;;23.08;18.10;;;12.50;99.90;;;;;;5105912;28;20080;-24
2022/10/29 07:48:06;;;;;;;27.05;20.38;;;12.50;99.90;;;;;;5105920;28;20035;-24
2022/10/29 07:50:32;;;;;;;25.83;20.58;;;12.60;99.90;;;;;;5105330;28;20038;-24
2022/10/29 07:52:59;;;;;;;29.15;21.80;;;12.60;99.90;;;;;;5104915;28;20039;-24
2022/10/29 07:55:25;;;;;;;35.92;22.33;;;12.70;99.90;;;;;;5105362;28;20040;-24
2022/10/29 07:58:01;;;;;;;29.98;21.48;;;12.70;99.90;;;;;;5106485;28;20122;-25
2022/10/29 08:00:27;;;;;;;33.33;23.52;;;12.90;99.90;;;;;;5106754;28;20062;-24
2022/10/29 08:02:54;;;;;;;32.28;22.73;;;12.90;99.90;;;;;;5109903;28;20036;-24
2022/10/29 08:05:20;;;;;;;32.05;20.75;;;13.00;99.90;;;;;;5110111;28;20039;-24
2022/10/29 08:07:48;;;;;;;32.00;21.77;;;13.10;99.90;;;;;;5092959;28;20035;-25
2022/10/29 08:10:15;;;;;;;31.02;19.08;;;13.20;99.90;;;;;;5110752;28;20042;-25
2022/10/29 08:12:50;;;;;;;34.85;20.55;;;13.30;99.90;;;;;;5093445;28;20254;-24
2022/10/29 08:15:17;;;;;;;27.35;19.45;;;13.40;99.90;;;;;;5109855;28;20039;-24
2022/10/29 08:17:44;;;;;;;26.00;17.85;;;13.50;99.90;;;;;;5109928;28;20051;-25
2022/10/29 08:20:10;;;;;;;30.80;18.00;;;13.50;99.90;;;;;;5109196;28;20036;-25
2022/10/29 08:22:36;;;;;;;26.17;18.30;;;13.50;99.90;;;;;;5126393;28;20044;-25
2022/10/29 08:25:02;;;;;;;30.83;20.00;;;13.60;99.90;;;;;;5108314;28;20035;-25
2022/10/29 08:27:28;;;;;;;24.00;17.38;;;13.60;99.90;;;;;;5107498;28;20119;-25
2022/10/29 08:29:54;;;;;;;26.02;17.83;;;13.70;99.90;;;;;;5108700;28;20080;-25
2022/10/29 08:32:19;;;;;;;28.73;17.83;;;13.70;99.90;;;;;;5108921;28;20032;-25
2022/10/29 08:34:45;;;;;;;32.75;18.52;;;13.70;99.90;;;;;;5105923;28;20070;-25
2022/10/29 08:37:14;;;;;;;30.60;19.25;;;13.80;99.90;;;;;;5108243;28;20069;-25
2022/10/29 08:39:40;;;;;;;35.35;20.23;;;13.90;99.90;;;;;;5108845;28;20036;-25
2022/10/29 08:42:21;;;;;;;36.42;22.45;;;13.90;99.90;;;;;;5108670;28;20044;-25
2022/10/29 08:44:49;;;;;;;29.70;19.50;;;14.20;99.90;;;;;;5108027;28;20040;-25
2022/10/29 08:47:20;;;;;;;24.98;16.98;;;14.50;99.90;;;;;;5107634;28;20032;-25
2022/10/29 08:49:55;;;;;;;24.65;17.60;;;14.90;99.90;;;;;;5108211;28;20046;-25
2022/10/29 08:52:26;;;;;;;23.35;16.90;;;15.00;99.90;;;;;;5108179;28;20039;-25
2022/10/29 08:55:06;;;;;;;25.08;16.85;;;15.10;99.90;;;;;;5089845;28;20039;-28
2022/10/29 09:00:20;;;;;;;23.90;16.30;;;15.30;99.90;;;;;;5055431;28;20053;-27
2022/10/29 09:02:46;;;;;;;25.48;16.27;;;15.50;99.90;;;;;;5038336;28;20127;-27
2022/10/29 09:05:19;;;;;;;24.73;16.15;;;15.60;99.90;;;;;;5035699;28;20466;-28
2022/10/29 09:08:19;;;;;;;22.55;16.17;;;15.70;99.90;;;;;;5025571;28;20086;-28
2022/10/29 09:10:52;;;;;;;23.50;15.88;;;15.80;99.90;;;;;;5030366;28;20065;-27
2022/10/29 09:13:48;;;;;;;29.88;17.35;;;15.80;99.90;;;;;;5027201;28;20045;-27
2022/10/29 09:16:41;;;;;;;27.33;16.85;;;15.80;99.90;;;;;;5026307;28;20125;-27
2022/10/29 09:19:34;;;;;;;23.50;15.95;;;15.90;99.90;;;;;;5026113;28;20482;-27
2022/10/29 09:21:59;;;;;;;22.63;15.60;;;16.10;99.90;;;;;;5031301;28;20037;-28
2022/10/29 09:24:43;;;;;;;22.50;14.68;;;16.20;99.90;;;;;;5029628;28;20509;-28
2022/10/29 09:27:09;;;;;;;;;;;16.30;99.90;;;;;;5020364;28;20082;-28
2022/10/29 09:29:57;;;;;;;20.83;13.88;;;16.40;99.90;;;;;;5050622;28;20395;-28
2022/10/29 09:32:32;;;;;;;19.88;14.45;;;16.50;99.90;;;;;;5034481;28;20045;-28
2022/10/29 09:35:13;;;;;;;24.08;15.32;;;16.60;99.90;;;;;;5034847;28;20040;-27
2022/10/29 09:37:53;;;;;;;17.15;14.38;;;16.70;99.90;;;;;;5034473;28;20135;-28
2022/10/29 09:40:27;;;;;;;21.30;13.40;;;16.80;99.90;;;;;;5033304;28;20511;-28
2022/10/29 09:42:54;;;;;;;21.48;14.20;;;16.90;99.90;;;;;;5035413;28;20064;-28
2022/10/29 09:45:26;;;;;;;22.33;14.43;;;17.20;99.90;;;;;;5036253;28;20071;-28
2022/10/29 09:48:01;;;;;;;20.80;14.43;;;17.40;99.90;;;;;;5034169;28;20108;-28
2022/10/29 09:50:36;;;;;;;20.08;13.02;;;17.70;99.90;;;;;;5031743;28;20417;-28
2022/10/29 09:53:02;;;;;;;16.33;13.02;;;17.90;99.90;;;;;;5035476;28;20114;-28
2022/10/29 09:55:33;;;;;;;18.42;11.68;;;18.40;99.90;;;;;;5034790;28;20044;-28
2022/10/29 09:57:58;;;;;;;18.75;11.82;;;18.60;99.90;;;;;;5033187;28;20063;-28
2022/10/29 10:00:30;;;;;;;19.33;11.23;;;18.60;99.90;;;;;;5034434;28;20092;-28
2022/10/29 10:03:20;;;;;;;20.92;11.98;;;18.70;99.90;;;;;;5035783;28;20052;-28
2022/10/29 10:06:03;;;;;;;19.30;11.80;;;18.70;99.90;;;;;;5034258;28;20044;-28
2022/10/29 10:08:30;;;;;;;19.60;12.48;;;18.80;99.90;;;;;;5035484;28;20051;-28
2022/10/29 10:11:05;;;;;;;18.05;12.70;;;18.80;99.90;;;;;;5024277;28;20100;-28
2022/10/29 10:13:48;;;;;;;18.90;12.75;;;18.70;99.90;;;;;;5026020;28;20120;-28
2022/10/29 10:16:22;;;;;;;16.70;12.40;;;18.60;99.90;;;;;;5032855;28;20100;-28
2022/10/29 10:18:48;;;;;;;18.77;11.85;;;18.60;99.90;;;;;;5050118;28;20048;-28
2022/10/29 10:21:28;;;;;;;19.40;12.80;;;18.60;99.90;;;;;;5032777;28;20045;-28
2022/10/29 10:23:56;;;;;;;20.25;13.18;;;18.70;99.90;;;;;;5036324;28;20041;-28
2022/10/29 10:26:25;;;;;;;23.42;14.57;;;18.70;99.90;;;;;;5037067;28;20522;-28
2022/10/29 10:29:18;;;;;;;19.95;13.27;;;18.80;99.90;;;;;;5018464;28;20037;-28
2022/10/29 10:31:54;;;;;;;20.83;13.40;;;19.30;99.90;;;;;;5055207;28;20029;-29
2022/10/29 10:34:22;;;;;;;19.25;13.70;;;19.60;99.90;;;;;;5037612;28;20086;-28
2022/10/29 10:37:01;;;;;;;22.45;14.32;;;19.80;99.90;;;;;;5056202;28;20429;-28
2022/10/29 10:39:42;;;;;;;26.10;14.63;;;19.80;99.90;;;;;;5036070;28;20060;-29
2022/10/29 10:42:36;;;;;;;24.10;14.52;;;20.00;99.90;;;;;;5030966;28;20136;-28
2022/10/29 10:45:04;;;;;;;26.80;14.65;;;19.80;99.90;;;;;;5029672;28;20401;-29
2022/10/29 10:47:34;;;;;;;18.00;13.90;;;19.90;99.90;;;;;;5018505;28;20049;-29
2022/10/29 10:50:26;;;;;;;22.35;14.70;;;20.20;99.90;;;;;;5024920;28;20035;-29
2022/10/29 10:52:54;;;;;;;19.20;13.35;;;20.60;99.90;;;;;;5017224;28;20472;-29
2022/10/29 10:55:29;;;;;;;19.00;13.93;;;21.30;99.90;;;;;;5033520;28;20033;-29
2022/10/29 10:58:36;;;;;;;22.02;12.50;;;21.60;99.90;;;;;;5033195;28;20055;-29
2022/10/29 11:01:13;;;;;;;21.25;13.02;;;21.70;99.90;;;;;;5005664;28;20047;-29
2022/10/29 11:03:45;;;;;;;21.23;13.52;;;21.50;99.90;;;;;;5055682;22;20469;-31
2022/10/29 11:06:21;;;;;;;20.95;12.95;;;21.20;99.90;;;;;;5058086;28;20040;-29
2022/10/29 11:09:04;;;;;;;21.42;13.27;;;20.80;99.90;;;;;;5044972;28;20029;-29
2022/10/29 11:11:54;;;;;;;21.80;14.75;;;20.40;99.90;;;;;;5039417;28;20037;-29
2022/10/29 11:14:41;;;;;;;19.55;13.20;;;20.30;99.90;;;;;;5034889;28;20040;-29
2022/10/29 11:17:23;;;;;;;28.65;13.73;;;20.00;99.90;;;;;;5044305;28;20071;-29
2022/10/29 11:19:53;;;;;;;19.98;14.02;;;20.00;99.90;;;;;;5050808;28;20163;-30
2022/10/29 11:22:30;;;;;;;18.70;12.25;;;19.90;99.90;;;;;;5044030;28;20382;-30
2022/10/29 11:25:18;;;;;;;19.10;12.70;;;20.00;99.90;;;;;;5044626;28;20036;-30
2022/10/29 11:28:13;;;;;;;20.63;13.20;;;19.90;99.90;;;;;;5046622;28;20043;-30
2022/10/29 11:30:47;;;;;;;18.95;13.77;;;19.80;99.90;;;;;;5051234;28;20134;-30
2022/10/29 11:33:40;;;;;;;17.42;13.40;;;19.80;99.90;;;;;;5044877;28;20504;-30
2022/10/29 11:36:23;;;;;;;18.42;12.52;;;19.80;99.90;;;;;;5043831;28;20093;-30
2022/10/29 11:38:58;;;;;;;24.67;14.13;;;19.60;99.90;;;;;;5042792;28;20124;-30
2022/10/29 11:41:49;;;;;;;24.08;14.60;;;19.60;99.90;;;;;;5063321;28;20079;-30
2022/10/29 11:44:20;;;;;;;20.63;13.63;;;19.40;99.90;;;;;;5050566;28;20335;-30
2022/10/29 11:47:04;;;;;;;22.40;13.95;;;19.50;99.90;;;;;;5050140;28;20037;-30
2022/10/29 11:49:50;;;;;;;26.23;14.38;;;19.60;99.90;;;;;;5035802;28;20490;-30
2022/10/29 11:53:02;;;;;;;20.80;14.07;;;19.70;99.90;;;;;;5047132;28;20072;-30
2022/10/29 11:55:27;;;;;;;27.52;13.57;;;20.10;99.90;;;;;;5047914;28;20044;-30
2022/10/29 11:58:22;;;;;;;22.90;13.88;;;20.60;99.90;;;;;;5046422;28;20085;-30
2022/10/29 12:00:50;;;;;;;21.77;13.23;;;21.20;99.90;;;;;;5049924;28;20069;-30
2022/10/29 12:03:22;;;;;;;25.80;15.25;;;21.50;99.90;;;;;;5044164;28;20045;-30
2022/10/29 12:06:10;;;;;;;20.30;13.68;;;21.40;99.90;;;;;;5048157;28;20398;-30
2022/10/29 12:08:54;;;;;;;22.15;14.02;;;21.60;99.90;;;;;;5045280;28;20040;-30
2022/10/29 12:11:24;;;;;;;21.30;13.27;;;21.90;99.90;;;;;;5047033;28;20040;-30
2022/10/29 12:13:55;;;;;;;20.50;13.20;;;22.70;99.90;;;;;;5046965;28;20119;-30
2022/10/29 12:16:27;;;;;;;19.35;13.10;;;22.90;99.90;;;;;;5059567;28;20561;-30
2022/10/29 12:19:11;;;;;;;20.52;13.32;;;23.10;99.90;;;;;;5048754;28;20505;-30
2022/10/29 12:21:45;;;;;;;21.05;13.55;;;23.40;99.90;;;;;;5059931;28;20044;-30
2022/10/29 12:24:32;;;;;;;18.90;12.85;;;24.00;99.90;;;;;;5050698;28;20048;-30
2022/10/29 12:27:20;;;;;;;17.98;12.82;;;24.60;99.90;;;;;;5051197;28;20036;-30
2022/10/29 12:30:08;;;;;;;18.60;13.13;;;24.70;99.90;;;;;;5042607;28;20661;-30
2022/10/29 12:32:55;;;;;;;21.30;13.30;;;24.20;99.90;;;;;;5042274;28;20094;-30
2022/10/29 12:35:36;;;;;;;20.60;13.65;;;23.60;99.90;;;;;;5063038;28;20527;-30
2022/10/29 12:38:26;;;;;;;19.20;12.60;;;23.00;99.90;;;;;;5042727;28;20064;-30
2022/10/29 12:41:02;;;;;;;20.58;13.95;;;22.60;99.90;;;;;;5043557;28;20033;-30
2022/10/29 12:43:30;;;;;;;20.75;13.48;;;22.20;99.90;;;;;;5040766;28;20048;-30
2022/10/29 12:46:08;;;;;;;21.33;13.70;;;21.80;99.90;;;;;;5044046;28;20084;-30
2022/10/29 12:48:56;;;;;;;21.52;14.00;;;21.60;99.90;;;;;;5045969;28;20402;-30
2022/10/29 12:52:01;;;;;;;20.20;14.07;;;21.30;99.90;;;;;;5050973;28;20044;-30
2022/10/29 12:54:42;;;;;;;22.40;14.60;;;21.10;99.90;;;;;;5043529;28;20052;-30
2022/10/29 12:57:13;;;;;;;24.15;15.18;;;21.10;99.90;;;;;;5045246;28;20029;-30